Time;durP1;ratioP1;P1;durP2;ratioP2;P2;SDS_P1;SDS_P2;PMS_P1;PMS_P2;Temp;Humidity;BMP_temperature;BMP_pressure;BME280_temperature;BME280_humidity;BME280_pressure;Samples;Min_cycle;Max_cycle;Signal;HPM_P1;HPM_P2
2022/01/28 06:14:13;;;;;;;32.22;17.00;;;;;;;;;;6363574;22;20026;-84
2022/01/28 06:16:39;;;;;;;33.97;18.00;;;;;;;;;;6372723;22;20445;-85
2022/01/28 06:19:04;;;;;;;36.10;17.88;;;;;;;;;;6372732;22;20077;-85
2022/01/28 06:21:30;;;;;;;34.40;17.73;;;;;;;;;;6372709;22;20107;-86
2022/01/28 06:23:55;;;;;;;36.35;17.52;;;;;;;;;;6344248;22;20009;-85
2022/01/28 06:26:21;;;;;;;32.08;17.33;;;;;;;;;;6372225;22;20002;-86
2022/01/28 06:28:47;;;;;;;40.30;16.65;;;;;;;;;;6344266;22;20006;-86
2022/01/28 06:31:13;;;;;;;32.75;15.57;;;;;;;;;;6372404;22;20440;-86
2022/01/28 06:33:38;;;;;;;33.75;15.25;;;;;;;;;;6371762;22;20011;-85
2022/01/28 06:36:04;;;;;;;26.98;14.70;;;;;;;;;;6372039;22;20069;-86
2022/01/28 06:38:30;;;;;;;28.17;14.68;;;;;;;;;;6372235;22;20005;-85
2022/01/28 06:40:56;;;;;;;27.23;14.93;;;;;;;;;;6344410;22;20006;-85
2022/01/28 06:43:21;;;;;;;25.50;14.60;;;;;;;;;;6372055;22;20012;-85
2022/01/28 06:45:47;;;;;;;25.02;14.43;;;;;;;;;;6372152;22;20313;-86
2022/01/28 06:48:13;;;;;;;28.73;15.18;;;;;;;;;;6372157;22;20048;-84
2022/01/28 06:50:43;;;;;;;27.02;15.00;;;;;;;;;;6372079;22;19999;-83
2022/01/28 06:53:10;;;;;;;;;;;;;;;;;;6372395;22;19998;-84
2022/01/28 06:55:36;;;;;;;23.33;12.13;;;;;;;;;;6372233;22;19906;-82
2022/01/28 06:58:05;;;;;;;25.48;14.35;;;;;;;;;;6372488;22;20316;-84
2022/01/28 07:00:37;;;;;;;30.60;15.67;;;;;;;;;;6371922;22;20328;-84
2022/01/28 07:03:09;;;;;;;21.42;11.73;;;;;;;;;;6371993;22;19998;-85
2022/01/28 07:05:35;;;;;;;24.13;11.77;;;;;;;;;;6343954;22;20425;-85
2022/01/28 07:08:01;;;;;;;21.60;11.07;;;;;;;;;;6371833;22;20006;-85
2022/01/28 07:10:27;;;;;;;26.25;13.52;;;;;;;;;;6343978;22;20002;-84
2022/01/28 11:43:54;;;;;;;64.57;34.95;;;;;;;;;;6356131;22;20332;-87
2022/01/28 11:46:24;;;;;;;64.22;34.35;;;;;;;;;;6342405;22;20390;-87
2022/01/28 11:48:52;;;;;;;;;;;;;;;;;;6345110;22;19998;-89
2022/01/28 11:51:32;;;;;;;69.13;35.13;;;;;;;;;;6373592;22;19906;-88
2022/01/28 11:54:00;;;;;;;66.72;35.00;;;;;;;;;;6346337;22;20083;-89
2022/01/28 11:56:26;;;;;;;61.65;34.38;;;;;;;;;;6346408;22;20002;-87
2022/01/28 11:58:52;;;;;;;68.63;36.45;;;;;;;;;;6344912;22;20009;-87
2022/01/28 12:01:23;;;;;;;68.43;34.60;;;;;;;;;;6371000;22;20002;-86
2022/01/28 12:03:48;;;;;;;64.32;34.28;;;;;;;;;;6343841;22;20002;-87
2022/01/28 12:06:17;;;;;;;67.00;36.15;;;;;;;;;;6343527;22;20006;-87
2022/01/28 12:08:44;;;;;;;67.68;36.75;;;;;;;;;;6371820;22;20009;-87
2022/01/28 12:11:12;;;;;;;75.50;36.95;;;;;;;;;;6343741;22;20003;-87
2022/01/28 12:14:02;;;;;;;71.72;36.10;;;;;;;;;;6371631;22;20006;-87
2022/01/28 12:16:42;;;;;;;66.70;35.97;;;;;;;;;;6343383;22;20007;-88
2022/01/28 12:19:22;;;;;;;74.53;36.50;;;;;;;;;;6343950;22;20496;-86
2022/01/28 12:22:10;;;;;;;68.57;34.92;;;;;;;;;;6371391;22;19998;-87
2022/01/28 12:24:37;;;;;;;66.20;34.22;;;;;;;;;;6371315;22;20005;-91
2022/01/28 12:27:13;;;;;;;72.13;38.40;;;;;;;;;;6371082;22;20417;-86
2022/01/28 12:29:46;;;;;;;77.45;38.50;;;;;;;;;;6371103;22;20002;-84
2022/01/28 12:32:12;;;;;;;75.88;38.50;;;;;;;;;;6343121;22;20006;-86
2022/01/28 12:34:46;;;;;;;86.10;40.85;;;;;;;;;;6371270;22;20030;-86
2022/01/28 12:37:13;;;;;;;74.88;36.22;;;;;;;;;;6377524;22;20030;-86
2022/01/28 12:39:50;;;;;;;85.15;40.53;;;;;;;;;;6371902;22;20006;-85
2022/01/28 12:42:23;;;;;;;78.47;37.03;;;;;;;;;;6370866;22;20372;-85
2022/01/28 12:44:54;;;;;;;82.30;37.75;;;;;;;;;;6345556;22;20094;-86
2022/01/28 12:47:20;;;;;;;75.45;37.97;;;;;;;;;;6370742;22;20069;-86
2022/01/28 12:49:54;;;;;;;77.65;38.97;;;;;;;;;;6371825;22;20004;-84
2022/01/28 12:52:19;;;;;;;70.82;36.40;;;;;;;;;;6344142;22;20010;-86
2022/01/28 12:54:46;;;;;;;75.85;38.38;;;;;;;;;;6343753;22;20095;-86
2022/01/28 12:57:14;;;;;;;72.85;35.97;;;;;;;;;;6342900;22;19994;-85
2022/01/28 12:59:42;;;;;;;81.00;36.92;;;;;;;;;;6370930;22;19995;-85
2022/01/28 13:02:08;;;;;;;73.00;36.17;;;;;;;;;;6370960;22;20006;-84
2022/01/28 13:05:12;;;;;;;77.43;37.65;;;;;;;;;;6370651;22;19998;-86
2022/01/28 13:10:31;;;;;;;76.22;35.13;;;;;;;;;;6370868;22;20059;-86
2022/01/28 13:13:10;;;;;;;70.00;35.58;;;;;;;;;;6370815;22;20503;-86
2022/01/28 13:15:37;;;;;;;77.37;36.23;;;;;;;;;;6371110;22;20005;-87
2022/01/28 13:18:04;;;;;;;77.25;35.17;;;;;;;;;;6371060;22;20215;-87
2022/01/28 13:20:41;;;;;;;71.57;35.08;;;;;;;;;;6371703;22;20002;-86
2022/01/28 13:23:09;;;;;;;81.53;36.28;;;;;;;;;;6371165;22;20002;-87
2022/01/28 13:25:34;;;;;;;80.32;35.67;;;;;;;;;;6342761;22;20003;-86
2022/01/28 13:28:03;;;;;;;72.90;34.53;;;;;;;;;;6370905;22;20024;-86
2022/01/28 13:30:38;;;;;;;74.88;34.92;;;;;;;;;;6370737;22;20030;-86
2022/01/28 13:33:06;;;;;;;73.18;35.03;;;;;;;;;;6371020;22;20002;-86
2022/01/28 13:35:33;;;;;;;77.07;34.53;;;;;;;;;;6370870;22;20003;-86
2022/01/28 13:38:05;;;;;;;71.65;34.92;;;;;;;;;;6342956;22;20310;-87
2022/01/28 13:40:34;;;;;;;74.13;34.72;;;;;;;;;;6342843;22;20420;-86
2022/01/28 13:43:07;;;;;;;73.55;34.60;;;;;;;;;;6370794;22;20003;-86
2022/01/28 13:45:34;;;;;;;73.53;33.78;;;;;;;;;;6370963;22;20085;-86
2022/01/28 13:48:02;;;;;;;69.75;30.80;;;;;;;;;;6372895;22;20002;-85
2022/01/28 13:50:33;;;;;;;69.03;33.03;;;;;;;;;;6372624;22;20372;-86
2022/01/28 13:55:49;;;;;;;73.22;33.10;;;;;;;;;;6372900;22;20010;-86
2022/01/28 13:58:15;;;;;;;70.15;33.08;;;;;;;;;;6344645;22;19998;-87
2022/01/28 14:00:44;;;;;;;68.97;32.05;;;;;;;;;;6372506;22;20038;-87
2022/01/28 14:03:20;;;;;;;72.35;32.28;;;;;;;;;;6344039;22;20005;-85
2022/01/28 14:05:53;;;;;;;70.20;33.83;;;;;;;;;;6343850;22;20002;-87
2022/01/28 14:08:41;;;;;;;72.18;32.50;;;;;;;;;;6372654;22;19994;-86
2022/01/28 14:11:32;;;;;;;69.22;33.33;;;;;;;;;;6372544;22;20002;-86
2022/01/28 14:14:15;;;;;;;81.30;38.42;;;;;;;;;;6372634;22;20006;-86
2022/01/28 14:16:42;;;;;;;72.95;33.40;;;;;;;;;;6372590;22;19998;-84
2022/01/28 14:19:08;;;;;;;65.75;33.08;;;;;;;;;;6372636;22;19998;-85
2022/01/28 14:21:34;;;;;;;71.40;34.15;;;;;;;;;;6344387;22;20013;-85
2022/01/28 14:23:59;;;;;;;69.72;32.97;;;;;;;;;;6372420;22;20010;-85
2022/01/28 14:26:25;;;;;;;89.93;40.17;;;;;;;;;;6372271;22;19999;-85
2022/01/28 14:31:15;;;;;;;74.85;34.90;;;;;;;;;;6376721;22;20010;-85
2022/01/28 14:33:44;;;;;;;84.28;36.45;;;;;;;;;;6372355;22;20006;-86
2022/01/28 14:36:10;;;;;;;73.72;34.20;;;;;;;;;;6372213;22;20002;-85
2022/01/28 14:38:36;;;;;;;66.40;31.80;;;;;;;;;;6372224;22;20421;-84
2022/01/28 14:41:01;;;;;;;62.25;29.85;;;;;;;;;;6372374;22;20058;-84
2022/01/28 14:43:27;;;;;;;65.85;32.95;;;;;;;;;;6372783;22;20038;-84
2022/01/28 14:45:52;;;;;;;60.05;30.85;;;;;;;;;;6371826;22;20042;-84
2022/01/28 14:48:21;;;;;;;69.97;32.15;;;;;;;;;;6372268;22;20051;-84
2022/01/28 14:50:47;;;;;;;62.78;30.38;;;;;;;;;;6371951;22;20048;-84
2022/01/28 15:21:40;;;;;;;41.78;20.27;;;;;;;;;;6340098;22;20026;-83
2022/01/28 15:24:06;;;;;;;47.00;20.90;;;;;;;;;;6370929;22;20012;-82
2022/01/28 15:26:31;;;;;;;47.80;22.25;;;;;;;;;;6370924;22;20005;-82
2022/01/28 15:29:02;;;;;;;41.67;20.00;;;;;;;;;;6371395;22;20059;-85
2022/01/28 15:37:00;;;;;;;45.28;20.02;;;;;;;;;;6383955;22;20003;-83
2022/01/28 15:39:26;;;;;;;46.70;20.20;;;;;;;;;;6371829;22;20023;-82
2022/01/28 15:41:52;;;;;;;137.55;61.55;;;;;;;;;;6343688;22;20059;-82
2022/01/28 15:44:17;;;;;;;91.05;42.17;;;;;;;;;;6371571;22;20448;-83
2022/01/28 15:46:43;;;;;;;63.20;26.90;;;;;;;;;;6371296;22;20002;-82
2022/01/28 15:49:09;;;;;;;58.80;27.90;;;;;;;;;;6371919;22;20002;-82
2022/01/28 15:51:35;;;;;;;38.45;18.25;;;;;;;;;;6371464;22;20347;-83
2022/01/28 15:54:01;;;;;;;37.55;17.13;;;;;;;;;;6371628;22;20347;-83
2022/01/28 15:56:27;;;;;;;62.35;28.05;;;;;;;;;;6371511;22;20024;-81
2022/01/28 15:58:53;;;;;;;60.15;29.05;;;;;;;;;;6370669;22;20010;-78
2022/01/28 16:01:22;;;;;;;48.65;24.30;;;;;;;;;;6343153;22;20006;-82
2022/01/28 16:03:48;;;;;;;43.80;18.77;;;;;;;;;;6371257;22;20469;-80
2022/01/28 16:06:13;;;;;;;46.40;21.88;;;;;;;;;;6370979;22;20033;-81
2022/01/28 16:08:39;;;;;;;60.25;35.03;;;;;;;;;;6370638;22;20005;-84
2022/01/28 16:18:39;;;;;;;50.10;25.00;;;;;;;;;;6379959;22;20055;-83
2022/01/28 16:21:05;;;;;;;45.13;22.15;;;;;;;;;;6343229;22;20009;-84
2022/01/28 16:23:31;;;;;;;53.53;24.02;;;;;;;;;;6371229;22;20017;-84
2022/01/28 16:25:59;;;;;;;47.85;22.10;;;;;;;;;;6371561;22;20022;-84
2022/01/28 16:28:25;;;;;;;45.17;23.30;;;;;;;;;;6371116;22;20371;-83
2022/01/28 16:30:54;;;;;;;55.95;25.90;;;;;;;;;;6371680;22;20033;-83
2022/01/28 16:33:23;;;;;;;54.35;26.63;;;;;;;;;;6371017;22;20009;-84
2022/01/28 16:35:50;;;;;;;47.72;23.98;;;;;;;;;;6371260;22;19998;-84
2022/01/28 16:38:16;;;;;;;55.58;27.27;;;;;;;;;;6370735;22;20321;-84
2022/01/28 16:40:44;;;;;;;48.05;23.52;;;;;;;;;;6370758;22;20090;-84
2022/01/28 16:43:16;;;;;;;42.85;20.92;;;;;;;;;;6371330;22;20414;-83
2022/01/28 16:45:41;;;;;;;40.50;18.45;;;;;;;;;;6370725;22;20003;-84
2022/01/28 16:48:07;;;;;;;36.83;17.88;;;;;;;;;;6370921;22;20362;-84
2022/01/28 16:50:33;;;;;;;49.47;21.95;;;;;;;;;;6370477;22;19999;-83
2022/01/28 16:52:58;;;;;;;44.47;22.55;;;;;;;;;;6370307;22;20056;-83
2022/01/28 16:55:24;;;;;;;48.13;21.92;;;;;;;;;;6370570;22;19999;-83
2022/01/28 16:57:51;;;;;;;46.40;22.30;;;;;;;;;;6370705;22;20006;-84
2022/01/28 17:00:21;;;;;;;54.53;24.20;;;;;;;;;;6370414;22;19999;-82
2022/01/28 17:02:53;;;;;;;57.15;25.58;;;;;;;;;;6370888;22;20009;-84
2022/01/28 17:05:20;;;;;;;55.85;25.52;;;;;;;;;;6370802;22;20093;-83
2022/01/28 17:07:46;;;;;;;42.80;20.23;;;;;;;;;;6370684;22;20409;-79
2022/01/28 17:10:32;;;;;;;243.20;116.82;;;;;;;;;;6370546;22;19998;-82
2022/01/28 17:12:57;;;;;;;153.93;64.75;;;;;;;;;;6370326;22;20006;-80
2022/01/28 17:15:23;;;;;;;80.63;35.33;;;;;;;;;;6370773;22;20009;-80
2022/01/28 17:17:48;;;;;;;68.97;34.60;;;;;;;;;;6342734;22;20008;-82
2022/01/28 17:20:14;;;;;;;67.65;31.70;;;;;;;;;;6371092;22;20002;-82
2022/01/28 17:22:42;;;;;;;67.93;35.97;;;;;;;;;;6372697;22;20374;-82
2022/01/28 17:25:09;;;;;;;76.45;39.20;;;;;;;;;;6344726;22;20067;-83
2022/01/28 17:27:35;;;;;;;80.00;45.58;;;;;;;;;;6372793;22;20033;-84
2022/01/28 17:30:01;;;;;;;75.55;39.13;;;;;;;;;;6373083;22;20002;-84
2022/01/28 17:32:26;;;;;;;76.20;35.05;;;;;;;;;;6372755;22;19999;-84
2022/01/28 17:34:52;;;;;;;49.00;24.33;;;;;;;;;;6372739;22;20068;-83
2022/01/28 17:37:17;;;;;;;48.03;23.35;;;;;;;;;;6372318;22;20005;-84
2022/01/28 17:39:45;;;;;;;59.50;27.10;;;;;;;;;;6372863;22;20076;-84
2022/01/28 17:42:11;;;;;;;61.92;29.75;;;;;;;;;;6344093;22;20066;-83
2022/01/28 17:44:36;;;;;;;66.32;32.47;;;;;;;;;;6372818;22;20036;-83
2022/01/28 17:47:02;;;;;;;55.45;28.92;;;;;;;;;;6372321;22;20002;-84
2022/01/28 17:49:28;;;;;;;46.85;22.92;;;;;;;;;;6372293;22;20002;-88
2022/01/28 17:51:57;;;;;;;38.28;18.55;;;;;;;;;;6344485;22;20044;-79
2022/01/28 17:54:23;;;;;;;31.05;14.20;;;;;;;;;;6372872;22;20025;-84
2022/01/28 17:56:48;;;;;;;9.35;5.82;;;;;;;;;;6372369;22;20313;-82
2022/01/28 17:59:14;;;;;;;7.43;3.75;;;;;;;;;;6372275;22;19998;-83
2022/01/28 18:01:39;;;;;;;2.40;1.55;;;;;;;;;;6372591;22;20086;-83
2022/01/28 18:04:05;;;;;;;2.22;1.77;;;;;;;;;;6372267;22;20005;-83
2022/01/28 18:06:30;;;;;;;4.13;2.60;;;;;;;;;;6372498;22;20006;-83
2022/01/28 18:08:56;;;;;;;5.18;2.97;;;;;;;;;;6372550;22;20005;-83
2022/01/28 18:11:21;;;;;;;10.43;6.10;;;;;;;;;;6372434;22;20006;-82
2022/01/28 18:13:47;;;;;;;14.50;12.05;;;;;;;;;;6372425;22;20010;-82
2022/01/28 18:16:13;;;;;;;10.57;7.53;;;;;;;;;;6372419;22;19999;-83
2022/01/28 18:18:38;;;;;;;7.60;5.20;;;;;;;;;;6344276;22;20329;-82
2022/01/28 18:21:04;;;;;;;2.92;2.63;;;;;;;;;;6372659;22;20010;-82
2022/01/28 18:23:29;;;;;;;2.75;2.55;;;;;;;;;;6373481;22;20101;-85
2022/01/28 18:25:56;;;;;;;4.00;2.10;;;;;;;;;;6373334;22;20414;-82
2022/01/28 18:28:23;;;;;;;2.67;1.60;;;;;;;;;;6375252;22;20014;-83
2022/01/28 18:30:48;;;;;;;2.40;1.30;;;;;;;;;;6372329;22;20463;-84
2022/01/28 18:33:14;;;;;;;2.05;1.50;;;;;;;;;;6371806;22;20003;-81
2022/01/28 18:35:40;;;;;;;1.92;1.58;;;;;;;;;;6372830;22;20002;-82
2022/01/28 18:38:05;;;;;;;3.85;1.63;;;;;;;;;;6372289;22;20089;-81
2022/01/28 18:40:31;;;;;;;2.50;1.50;;;;;;;;;;6371904;22;20212;-80
2022/01/28 18:42:59;;;;;;;5.05;1.55;;;;;;;;;;6372620;22;20481;-82
2022/01/28 18:45:30;;;;;;;1.42;1.27;;;;;;;;;;6372708;22;20098;-81
2022/01/28 18:47:56;;;;;;;2.03;1.10;;;;;;;;;;6372160;22;20071;-83
2022/01/28 18:50:22;;;;;;;2.00;1.50;;;;;;;;;;6372240;22;20002;-82
2022/01/28 18:52:51;;;;;;;2.50;1.70;;;;;;;;;;6372292;22;20047;-83
2022/01/28 18:55:17;;;;;;;3.40;1.70;;;;;;;;;;6344304;22;20081;-83
2022/01/28 18:57:43;;;;;;;1.77;1.45;;;;;;;;;;6344323;22;19994;-83
2022/01/28 19:00:09;;;;;;;2.47;1.83;;;;;;;;;;6372211;22;20372;-82
2022/01/28 19:02:35;;;;;;;2.25;1.63;;;;;;;;;;6372090;22;20003;-83
2022/01/28 19:05:00;;;;;;;1.65;1.55;;;;;;;;;;6372423;22;20003;-82
2022/01/28 19:07:26;;;;;;;2.58;2.38;;;;;;;;;;6373050;22;19994;-83
2022/01/28 19:09:52;;;;;;;2.83;1.80;;;;;;;;;;6372283;22;20467;-82
2022/01/28 19:12:25;;;;;;;2.20;1.75;;;;;;;;;;6372192;22;20010;-81
2022/01/28 19:14:52;;;;;;;1.38;1.27;;;;;;;;;;6371834;22;20034;-79
2022/01/28 19:17:18;;;;;;;1.60;1.45;;;;;;;;;;6371803;22;20028;-82
2022/01/28 19:19:46;;;;;;;1.90;1.70;;;;;;;;;;6371904;22;20045;-82
2022/01/28 19:22:12;;;;;;;1.40;1.20;;;;;;;;;;6371950;22;20006;-81
2022/01/28 19:24:39;;;;;;;1.60;1.30;;;;;;;;;;6372018;22;20006;-81
2022/01/28 19:27:05;;;;;;;1.10;1.00;;;;;;;;;;6371901;22;20451;-81
2022/01/28 19:29:30;;;;;;;1.45;1.10;;;;;;;;;;6371687;22;20796;-81
2022/01/28 19:31:56;;;;;;;3.35;1.10;;;;;;;;;;6371919;22;19998;-80
2022/01/28 19:34:21;;;;;;;1.33;1.00;;;;;;;;;;6371857;22;20047;-80
2022/01/28 19:36:46;;;;;;;1.33;1.00;;;;;;;;;;6372044;22;20002;-80
2022/01/28 19:39:12;;;;;;;5.93;1.40;;;;;;;;;;6371895;22;20009;-80
2022/01/28 19:41:37;;;;;;;3.33;1.10;;;;;;;;;;6343858;22;20409;-80
2022/01/28 19:44:03;;;;;;;1.63;1.10;;;;;;;;;;6371318;22;20467;-80
2022/01/28 19:46:32;;;;;;;1.05;0.90;;;;;;;;;;6371780;22;20078;-80
2022/01/28 19:49:06;;;;;;;1.90;1.03;;;;;;;;;;6343892;22;20006;-81
2022/01/28 19:51:32;;;;;;;1.67;1.10;;;;;;;;;;6372049;22;20007;-79
2022/01/28 19:53:58;;;;;;;1.13;1.02;;;;;;;;;;6371684;22;20010;-80
2022/01/28 19:56:23;;;;;;;4.10;1.30;;;;;;;;;;6371787;22;20013;-80
2022/01/28 19:58:49;;;;;;;2.60;1.30;;;;;;;;;;6371596;22;19998;-81
2022/01/28 20:01:16;;;;;;;2.50;1.13;;;;;;;;;;6371510;22;20061;-81
2022/01/28 20:03:41;;;;;;;1.27;1.17;;;;;;;;;;6343602;22;20306;-81
2022/01/28 20:06:07;;;;;;;1.55;1.30;;;;;;;;;;6371547;22;20009;-81
2022/01/28 20:08:32;;;;;;;1.77;0.98;;;;;;;;;;6371445;22;19998;-81
2022/01/28 20:10:57;;;;;;;1.17;1.05;;;;;;;;;;6371318;22;20009;-80
2022/01/28 20:13:23;;;;;;;1.83;1.30;;;;;;;;;;6371157;22;20059;-81
2022/01/28 20:15:48;;;;;;;3.10;1.27;;;;;;;;;;6371336;22;20051;-80
2022/01/28 20:18:14;;;;;;;1.90;1.80;;;;;;;;;;6371267;22;19994;-80
2022/01/28 20:20:40;;;;;;;3.30;2.00;;;;;;;;;;6371168;22;20009;-81
2022/01/28 20:23:05;;;;;;;2.03;1.30;;;;;;;;;;6371313;22;20049;-80
2022/01/28 20:25:32;;;;;;;1.25;1.15;;;;;;;;;;6371304;22;20022;-80
2022/01/28 20:27:58;;;;;;;1.13;1.08;;;;;;;;;;6371206;22;19999;-80
2022/01/28 20:30:26;;;;;;;2.92;1.50;;;;;;;;;;6371040;22;19998;-80
2022/01/28 20:32:51;;;;;;;12.70;5.40;;;;;;;;;;6371393;22;20041;-81
2022/01/28 20:35:22;;;;;;;7.05;3.28;;;;;;;;;;6371403;22;19998;-80
2022/01/28 20:37:48;;;;;;;2.90;1.60;;;;;;;;;;6371088;22;20010;-80
2022/01/28 20:40:13;;;;;;;3.45;3.15;;;;;;;;;;6371082;22;20026;-80
2022/01/28 20:42:39;;;;;;;3.13;2.53;;;;;;;;;;6371104;22;20002;-78
2022/01/28 20:45:05;;;;;;;2.72;2.40;;;;;;;;;;6371515;22;20482;-80
2022/01/28 20:47:30;;;;;;;1.50;1.40;;;;;;;;;;6371096;22;19999;-80
2022/01/28 20:49:56;;;;;;;4.40;3.20;;;;;;;;;;6371199;22;19998;-79
2022/01/28 20:52:21;;;;;;;3.30;2.63;;;;;;;;;;6371652;22;20055;-81
2022/01/28 20:54:47;;;;;;;6.53;4.32;;;;;;;;;;6371047;22;20006;-81
2022/01/28 20:57:12;;;;;;;27.67;15.52;;;;;;;;;;6371124;22;20011;-81
2022/01/28 20:59:37;;;;;;;31.77;17.90;;;;;;;;;;6371656;22;20005;-81
2022/01/28 21:02:03;;;;;;;6.35;4.43;;;;;;;;;;6371252;22;20009;-82
2022/01/28 21:04:28;;;;;;;79.88;35.38;;;;;;;;;;6371143;22;20008;-82
2022/01/28 21:06:54;;;;;;;17.52;9.50;;;;;;;;;;6370929;22;20325;-82
2022/01/28 21:09:20;;;;;;;3.03;2.53;;;;;;;;;;6371163;22;20414;-82
2022/01/28 21:11:46;;;;;;;4.38;3.17;;;;;;;;;;6370920;22;20050;-82
2022/01/28 21:14:12;;;;;;;2.65;2.15;;;;;;;;;;6342903;22;20014;-82
2022/01/28 21:16:39;;;;;;;2.80;2.30;;;;;;;;;;6370944;22;20009;-82
2022/01/28 21:19:06;;;;;;;2.63;2.17;;;;;;;;;;6371043;22;20002;-83
2022/01/28 21:21:31;;;;;;;5.03;3.45;;;;;;;;;;6343338;22;20014;-82
2022/01/28 21:23:57;;;;;;;8.50;5.00;;;;;;;;;;6370465;22;20063;-83
2022/01/28 21:26:22;;;;;;;49.95;24.55;;;;;;;;;;6370745;22;20013;-82
2022/01/28 21:28:48;;;;;;;65.78;31.00;;;;;;;;;;6370721;22;19998;-82
2022/01/28 21:31:14;;;;;;;348.42;144.90;;;;;;;;;;6342909;22;20013;-81
2022/01/28 21:33:39;;;;;;;18.58;8.50;;;;;;;;;;6370759;22;20002;-82
2022/01/28 21:36:05;;;;;;;16.95;7.47;;;;;;;;;;6370812;22;20006;-82
2022/01/28 21:38:30;;;;;;;12.93;7.38;;;;;;;;;;6370818;22;20010;-82
2022/01/28 21:40:57;;;;;;;3.83;3.30;;;;;;;;;;6370625;22;20421;-82
2022/01/28 21:43:28;;;;;;;2.88;2.60;;;;;;;;;;6370783;22;20073;-82
2022/01/28 21:45:55;;;;;;;2.22;1.80;;;;;;;;;;6370715;22;20298;-84
2022/01/28 21:48:20;;;;;;;4.45;3.70;;;;;;;;;;6370838;22;20350;-82
2022/01/28 21:50:46;;;;;;;1.35;0.95;;;;;;;;;;6370829;22;20069;-81
2022/01/28 21:53:20;;;;;;;2.03;1.30;;;;;;;;;;6370615;22;20013;-82
2022/01/28 21:55:46;;;;;;;1.30;1.15;;;;;;;;;;6370789;22;20418;-81
2022/01/28 21:58:11;;;;;;;1.85;1.00;;;;;;;;;;6370710;22;20007;-81
2022/01/28 22:00:37;;;;;;;1.73;1.25;;;;;;;;;;6342771;22;20009;-81
2022/01/28 22:03:05;;;;;;;1.27;1.05;;;;;;;;;;6370903;22;20295;-85
2022/01/28 22:05:36;;;;;;;1.30;1.17;;;;;;;;;;6370779;22;19998;-83
2022/01/28 22:08:05;;;;;;;1.63;1.42;;;;;;;;;;6372014;22;20394;-84
2022/01/28 22:10:33;;;;;;;1.80;1.27;;;;;;;;;;6373044;22;19999;-82
2022/01/28 22:12:59;;;;;;;1.88;1.20;;;;;;;;;;6372503;22;20009;-81
2022/01/28 22:15:24;;;;;;;1.20;1.10;;;;;;;;;;6372562;22;20003;-82
2022/01/28 22:17:50;;;;;;;1.30;1.20;;;;;;;;;;6344422;22;20077;-82
2022/01/28 22:20:15;;;;;;;3.42;1.40;;;;;;;;;;6372535;22;20002;-82
2022/01/28 22:22:40;;;;;;;0.85;0.85;;;;;;;;;;6372374;22;20010;-82
2022/01/28 22:25:11;;;;;;;1.60;1.30;;;;;;;;;;6372825;22;20002;-82
2022/01/28 22:27:36;;;;;;;;;;;;;;;;;;6373106;22;20051;-83
2022/01/28 22:30:04;;;;;;;1.30;1.20;;;;;;;;;;6344285;22;20272;-83
2022/01/28 22:32:29;;;;;;;1.05;1.00;;;;;;;;;;6372402;22;20057;-83
2022/01/28 22:34:55;;;;;;;0.90;0.90;;;;;;;;;;6372349;22;19998;-83
2022/01/28 22:37:20;;;;;;;1.67;1.20;;;;;;;;;;6372398;22;19999;-84
2022/01/28 22:39:45;;;;;;;1.55;1.13;;;;;;;;;;6372455;22;20115;-82
2022/01/28 22:42:11;;;;;;;1.52;1.42;;;;;;;;;;6372446;22;20002;-81
2022/01/28 22:44:39;;;;;;;1.20;0.95;;;;;;;;;;6344512;22;20002;-83
2022/01/28 22:47:05;;;;;;;1.55;1.20;;;;;;;;;;6372512;22;19998;-82
2022/01/28 22:49:30;;;;;;;2.03;1.38;;;;;;;;;;6372154;22;20009;-81
2022/01/28 22:51:55;;;;;;;1.10;0.90;;;;;;;;;;6372066;22;20074;-81
2022/01/28 22:54:21;;;;;;;1.40;1.30;;;;;;;;;;6372097;22;20522;-83
2022/01/28 22:56:47;;;;;;;1.83;1.30;;;;;;;;;;6372135;22;20022;-81
2022/01/28 22:59:13;;;;;;;3.25;1.58;;;;;;;;;;6372528;22;20002;-83
